sensor_id;sensor_type;location;lat;lon;timestamp;pressure;altitude;pressure_sealevel;temperature;humidity
58947;BME280;44724;52.332;4.978;2022-08-19T00:00:48;101604.41;;;17.64;100.00
58947;BME280;44724;52.332;4.978;2022-08-19T00:03:15;101599.25;;;17.58;100.00
58947;BME280;44724;52.332;4.978;2022-08-19T00:05:40;101601.34;;;17.52;100.00
58947;BME280;44724;52.332;4.978;2022-08-19T00:08:07;101594.22;;;17.46;100.00
58947;BME280;44724;52.332;4.978;2022-08-19T00:10:32;101596.00;;;17.42;100.00
58947;BME280;44724;52.332;4.978;2022-08-19T00:12:59;101589.91;;;17.40;100.00
58947;BME280;44724;52.332;4.978;2022-08-19T00:15:24;101583.31;;;17.36;100.00
58947;BME280;44724;52.332;4.978;2022-08-19T00:17:50;101579.97;;;17.34;100.00
58947;BME280;44724;52.332;4.978;2022-08-19T00:20:19;101578.66;;;17.31;100.00
58947;BME280;44724;52.332;4.978;2022-08-19T00:22:45;101582.91;;;17.28;100.00
58947;BME280;44724;52.332;4.978;2022-08-19T00:25:10;101583.25;;;17.27;100.00
58947;BME280;44724;52.332;4.978;2022-08-19T00:27:36;101588.84;;;17.27;100.00
58947;BME280;44724;52.332;4.978;2022-08-19T00:30:03;101583.56;;;17.25;100.00
58947;BME280;44724;52.332;4.978;2022-08-19T00:32:29;101594.25;;;17.23;100.00
58947;BME280;44724;52.332;4.978;2022-08-19T00:34:55;101601.59;;;17.19;100.00
58947;BME280;44724;52.332;4.978;2022-08-19T00:37:22;101600.47;;;17.20;100.00
58947;BME280;44724;52.332;4.978;2022-08-19T00:39:48;101608.97;;;17.15;100.00
58947;BME280;44724;52.332;4.978;2022-08-19T00:42:14;101605.66;;;17.13;100.00
58947;BME280;44724;52.332;4.978;2022-08-19T00:44:40;101604.50;;;17.14;100.00
58947;BME280;44724;52.332;4.978;2022-08-19T00:47:06;101603.88;;;17.17;100.00
58947;BME280;44724;52.332;4.978;2022-08-19T00:49:49;101595.19;;;17.19;100.00
58947;BME280;44724;52.332;4.978;2022-08-19T00:52:33;101586.59;;;17.15;100.00
58947;BME280;44724;52.332;4.978;2022-08-19T00:55:00;101593.19;;;17.19;100.00
58947;BME280;44724;52.332;4.978;2022-08-19T00:57:36;101588.97;;;17.22;100.00
58947;BME280;44724;52.332;4.978;2022-08-19T01:00:08;101594.88;;;17.20;100.00
58947;BME280;44724;52.332;4.978;2022-08-19T01:02:35;101608.97;;;17.15;100.00
58947;BME280;44724;52.332;4.978;2022-08-19T01:05:07;101605.22;;;17.20;100.00
58947;BME280;44724;52.332;4.978;2022-08-19T01:07:34;101609.34;;;17.22;100.00
58947;BME280;44724;52.332;4.978;2022-08-19T01:10:01;101607.06;;;17.24;100.00
58947;BME280;44724;52.332;4.978;2022-08-19T01:12:26;101611.53;;;17.25;100.00
58947;BME280;44724;52.332;4.978;2022-08-19T01:14:53;101615.44;;;17.24;100.00
58947;BME280;44724;52.332;4.978;2022-08-19T01:17:20;101605.06;;;17.25;100.00
58947;BME280;44724;52.332;4.978;2022-08-19T01:19:46;101595.88;;;17.24;100.00
58947;BME280;44724;52.332;4.978;2022-08-19T01:22:30;101595.88;;;17.24;100.00
58947;BME280;44724;52.332;4.978;2022-08-19T01:24:57;101598.97;;;17.23;100.00
58947;BME280;44724;52.332;4.978;2022-08-19T01:27:23;101609.84;;;17.24;100.00
58947;BME280;44724;52.332;4.978;2022-08-19T01:29:48;101600.97;;;17.22;100.00
58947;BME280;44724;52.332;4.978;2022-08-19T01:32:15;101599.84;;;17.23;100.00
58947;BME280;44724;52.332;4.978;2022-08-19T01:34:41;101614.94;;;17.22;100.00
58947;BME280;44724;52.332;4.978;2022-08-19T01:37:09;101620.53;;;17.22;100.00
58947;BME280;44724;52.332;4.978;2022-08-19T01:39:38;101614.44;;;17.20;100.00
58947;BME280;44724;52.332;4.978;2022-08-19T01:42:04;101615.25;;;17.21;100.00
58947;BME280;44724;52.332;4.978;2022-08-19T01:44:31;101618.06;;;17.21;100.00
58947;BME280;44724;52.332;4.978;2022-08-19T01:46:56;101606.03;;;17.20;100.00
58947;BME280;44724;52.332;4.978;2022-08-19T01:49:23;101603.56;;;17.19;100.00
58947;BME280;44724;52.332;4.978;2022-08-19T01:51:49;101608.34;;;17.18;100.00
58947;BME280;44724;52.332;4.978;2022-08-19T01:54:17;101619.22;;;17.20;100.00
58947;BME280;44724;52.332;4.978;2022-08-19T01:56:43;101621.16;;;17.19;100.00
58947;BME280;44724;52.332;4.978;2022-08-19T01:59:13;101620.84;;;17.21;100.00
58947;BME280;44724;52.332;4.978;2022-08-19T02:01:39;101620.34;;;17.19;100.00
58947;BME280;44724;52.332;4.978;2022-08-19T02:04:04;101617.22;;;17.20;100.00
58947;BME280;44724;52.332;4.978;2022-08-19T02:06:31;101614.13;;;17.22;100.00
58947;BME280;44724;52.332;4.978;2022-08-19T02:08:57;101610.81;;;17.20;100.00
58947;BME280;44724;52.332;4.978;2022-08-19T02:11:26;101611.66;;;17.20;100.00
58947;BME280;44724;52.332;4.978;2022-08-19T02:13:53;101616.72;;;17.18;100.00
58947;BME280;44724;52.332;4.978;2022-08-19T02:16:19;101605.53;;;17.18;100.00
58947;BME280;44724;52.332;4.978;2022-08-19T02:18:46;101608.97;;;17.15;100.00
58947;BME280;44724;52.332;4.978;2022-08-19T02:21:14;101604.84;;;17.13;100.00
58947;BME280;44724;52.332;4.978;2022-08-19T02:23:41;101600.69;;;17.10;100.00
58947;BME280;44724;52.332;4.978;2022-08-19T02:26:07;101595.41;;;17.08;100.00
58947;BME280;44724;52.332;4.978;2022-08-19T02:28:33;101594.09;;;17.06;100.00
58947;BME280;44724;52.332;4.978;2022-08-19T02:30:59;101591.59;;;17.04;100.00
58947;BME280;44724;52.332;4.978;2022-08-19T02:33:26;101594.72;;;17.03;100.00
58947;BME280;44724;52.332;4.978;2022-08-19T02:35:51;101586.31;;;17.03;100.00
58947;BME280;44724;52.332;4.978;2022-08-19T02:38:17;101587.44;;;17.02;100.00
58947;BME280;44724;52.332;4.978;2022-08-19T02:40:58;101589.75;;;17.00;100.00
58947;BME280;44724;52.332;4.978;2022-08-19T02:43:26;101587.59;;;16.97;100.00
58947;BME280;44724;52.332;4.978;2022-08-19T02:45:52;101590.38;;;16.97;100.00
58947;BME280;44724;52.332;4.978;2022-08-19T02:48:20;101592.34;;;16.96;100.00
58947;BME280;44724;52.332;4.978;2022-08-19T02:50:46;101589.84;;;16.95;100.00
58947;BME280;44724;52.332;4.978;2022-08-19T02:53:12;101593.81;;;16.94;100.00
58947;BME280;44724;52.332;4.978;2022-08-19T02:55:46;101580.44;;;16.90;100.00
58947;BME280;44724;52.332;4.978;2022-08-19T02:58:13;101577.97;;;16.89;100.00
58947;BME280;44724;52.332;4.978;2022-08-19T03:00:44;101570.19;;;16.86;100.00
58947;BME280;44724;52.332;4.978;2022-08-19T03:03:09;101580.25;;;16.87;100.00
58947;BME280;44724;52.332;4.978;2022-08-19T03:05:35;101574.97;;;16.85;100.00
58947;BME280;44724;52.332;4.978;2022-08-19T03:08:01;101573.34;;;16.84;100.00
58947;BME280;44724;52.332;4.978;2022-08-19T03:10:26;101581.72;;;16.84;100.00
58947;BME280;44724;52.332;4.978;2022-08-19T03:12:52;101568.88;;;16.83;100.00
58947;BME280;44724;52.332;4.978;2022-08-19T03:15:17;101568.03;;;16.83;100.00
58947;BME280;44724;52.332;4.978;2022-08-19T03:17:42;101583.94;;;16.82;100.00
58947;BME280;44724;52.332;4.978;2022-08-19T03:20:08;101583.94;;;16.82;100.00
58947;BME280;44724;52.332;4.978;2022-08-19T03:22:33;101578.69;;;16.81;100.00
58947;BME280;44724;52.332;4.978;2022-08-19T03:24:59;101580.13;;;16.78;100.00
58947;BME280;44724;52.332;4.978;2022-08-19T03:27:24;101575.72;;;16.77;100.00
58947;BME280;44724;52.332;4.978;2022-08-19T03:29:50;101568.44;;;16.76;100.00
58947;BME280;44724;52.332;4.978;2022-08-19T03:32:16;101562.03;;;16.76;100.00
58947;BME280;44724;52.332;4.978;2022-08-19T03:34:41;101553.97;;;16.74;100.00
58947;BME280;44724;52.332;4.978;2022-08-19T03:37:09;101564.31;;;16.73;100.00
58947;BME280;44724;52.332;4.978;2022-08-19T03:39:38;101564.63;;;16.72;100.00
58947;BME280;44724;52.332;4.978;2022-08-19T03:42:04;101559.88;;;16.72;100.00
58947;BME280;44724;52.332;4.978;2022-08-19T03:44:31;101558.41;;;16.75;100.00
58947;BME280;44724;52.332;4.978;2022-08-19T03:46:58;101564.84;;;16.76;100.00
58947;BME280;44724;52.332;4.978;2022-08-19T03:49:27;101569.56;;;16.75;100.00
58947;BME280;44724;52.332;4.978;2022-08-19T03:51:54;101562.88;;;16.76;100.00
58947;BME280;44724;52.332;4.978;2022-08-19T03:54:23;101572.06;;;16.77;100.00
58947;BME280;44724;52.332;4.978;2022-08-19T03:56:50;101566.78;;;16.75;100.00
58947;BME280;44724;52.332;4.978;2022-08-19T03:59:26;101568.25;;;16.72;100.00
58947;BME280;44724;52.332;4.978;2022-08-19T04:01:54;101568.25;;;16.72;100.00
58947;BME280;44724;52.332;4.978;2022-08-19T04:04:20;101569.06;;;16.73;100.00
58947;BME280;44724;52.332;4.978;2022-08-19T04:06:47;101564.31;;;16.73;100.00
58947;BME280;44724;52.332;4.978;2022-08-19T04:09:13;101557.06;;;16.72;100.00
58947;BME280;44724;52.332;4.978;2022-08-19T04:11:47;101551.78;;;16.71;100.00
58947;BME280;44724;52.332;4.978;2022-08-19T04:14:20;101552.94;;;16.70;100.00
58947;BME280;44724;52.332;4.978;2022-08-19T04:16:48;101558.00;;;16.68;100.00
58947;BME280;44724;52.332;4.978;2022-08-19T04:19:15;101562.47;;;16.69;100.00
58947;BME280;44724;52.332;4.978;2022-08-19T04:21:44;101570.53;;;16.70;100.00
58947;BME280;44724;52.332;4.978;2022-08-19T04:24:11;101571.34;;;16.71;100.00
58947;BME280;44724;52.332;4.978;2022-08-19T04:26:37;101569.56;;;16.75;100.00
58947;BME280;44724;52.332;4.978;2022-08-19T04:29:13;101575.72;;;16.77;100.00
58947;BME280;44724;52.332;4.978;2022-08-19T04:31:40;101573.72;;;16.78;100.00
58947;BME280;44724;52.332;4.978;2022-08-19T04:34:09;101575.06;;;16.80;100.00
58947;BME280;44724;52.332;4.978;2022-08-19T04:36:36;101576.72;;;16.81;100.00
58947;BME280;44724;52.332;4.978;2022-08-19T04:39:09;101579.50;;;16.81;100.00
58947;BME280;44724;52.332;4.978;2022-08-19T04:41:35;101582.00;;;16.83;100.00
58947;BME280;44724;52.332;4.978;2022-08-19T04:44:19;101587.81;;;16.86;100.00
58947;BME280;44724;52.332;4.978;2022-08-19T04:46:47;101570.75;;;16.88;100.00
58947;BME280;44724;52.332;4.978;2022-08-19T04:49:14;101574.84;;;16.90;100.00
58947;BME280;44724;52.332;4.978;2022-08-19T04:51:41;101590.50;;;16.91;100.00
58947;BME280;44724;52.332;4.978;2022-08-19T04:54:08;101585.72;;;16.92;100.00
58947;BME280;44724;52.332;4.978;2022-08-19T04:56:34;101580.97;;;16.92;100.00
58947;BME280;44724;52.332;4.978;2022-08-19T04:59:00;101590.38;;;16.97;100.00
58947;BME280;44724;52.332;4.978;2022-08-19T05:01:31;101599.28;;;16.99;100.00
58947;BME280;44724;52.332;4.978;2022-08-19T05:04:03;101614.28;;;17.03;100.00
58947;BME280;44724;52.332;4.978;2022-08-19T05:06:31;101615.84;;;17.09;100.00
58947;BME280;44724;52.332;4.978;2022-08-19T05:08:58;101620.97;;;17.16;100.00
58947;BME280;44724;52.332;4.978;2022-08-19T05:11:26;101614.44;;;17.20;100.00
58947;BME280;44724;52.332;4.978;2022-08-19T05:13:52;101622.22;;;17.23;100.00
58947;BME280;44724;52.332;4.978;2022-08-19T05:16:20;101620.09;;;17.29;100.00
58947;BME280;44724;52.332;4.978;2022-08-19T05:18:47;101623.91;;;17.33;100.00
58947;BME280;44724;52.332;4.978;2022-08-19T05:21:31;101628.06;;;17.36;100.00
58947;BME280;44724;52.332;4.978;2022-08-19T05:24:16;101632.75;;;17.49;100.00
58947;BME280;44724;52.332;4.978;2022-08-19T05:26:44;101627.53;;;17.56;100.00
58947;BME280;44724;52.332;4.978;2022-08-19T05:29:12;101636.50;;;17.67;100.00
58947;BME280;44724;52.332;4.978;2022-08-19T05:31:39;101624.06;;;17.73;100.00
58947;BME280;44724;52.332;4.978;2022-08-19T05:34:06;101619.47;;;17.77;100.00
58947;BME280;44724;52.332;4.978;2022-08-19T05:36:37;101607.31;;;17.82;100.00
58947;BME280;44724;52.332;4.978;2022-08-19T05:39:08;101604.91;;;17.89;100.00
58947;BME280;44724;52.332;4.978;2022-08-19T05:41:41;101593.25;;;17.96;100.00
58947;BME280;44724;52.332;4.978;2022-08-19T05:44:06;101601.69;;;18.04;100.00
58947;BME280;44724;52.332;4.978;2022-08-19T05:46:35;101603.72;;;18.13;100.00
58947;BME280;44724;52.332;4.978;2022-08-19T05:49:01;101589.06;;;18.16;100.00
58947;BME280;44724;52.332;4.978;2022-08-19T05:51:26;101585.28;;;18.20;100.00
58947;BME280;44724;52.332;4.978;2022-08-19T05:53:51;101591.56;;;18.26;100.00
58947;BME280;44724;52.332;4.978;2022-08-19T05:56:17;101589.28;;;18.28;100.00
58947;BME280;44724;52.332;4.978;2022-08-19T05:58:44;101584.66;;;18.32;100.00
58947;BME280;44724;52.332;4.978;2022-08-19T06:01:19;101581.09;;;18.40;100.00
58947;BME280;44724;52.332;4.978;2022-08-19T06:03:45;101582.06;;;18.45;100.00
58947;BME280;44724;52.332;4.978;2022-08-19T06:06:14;101573.53;;;18.50;100.00
58947;BME280;44724;52.332;4.978;2022-08-19T06:08:40;101571.38;;;18.55;100.00
58947;BME280;44724;52.332;4.978;2022-08-19T06:11:15;101571.22;;;18.52;100.00
58947;BME280;44724;52.332;4.978;2022-08-19T06:13:40;101578.78;;;18.60;100.00
58947;BME280;44724;52.332;4.978;2022-08-19T06:16:06;101567.25;;;18.53;100.00
58947;BME280;44724;52.332;4.978;2022-08-19T06:18:31;101565.81;;;18.64;100.00
58947;BME280;44724;52.332;4.978;2022-08-19T06:20:58;101574.56;;;18.71;100.00
58947;BME280;44724;52.332;4.978;2022-08-19T06:23:23;101565.31;;;18.79;100.00
58947;BME280;44724;52.332;4.978;2022-08-19T06:25:49;101568.78;;;18.76;100.00
58947;BME280;44724;52.332;4.978;2022-08-19T06:28:14;101564.16;;;18.72;100.00
58947;BME280;44724;52.332;4.978;2022-08-19T06:30:39;101562.69;;;18.83;100.00
58947;BME280;44724;52.332;4.978;2022-08-19T06:33:05;101560.88;;;18.78;100.00
58947;BME280;44724;52.332;4.978;2022-08-19T06:35:30;101560.91;;;18.87;100.00
58947;BME280;44724;52.332;4.978;2022-08-19T06:37:55;101558.41;;;18.77;100.00
58947;BME280;44724;52.332;4.978;2022-08-19T06:40:21;101554.78;;;18.76;100.00
58947;BME280;44724;52.332;4.978;2022-08-19T06:42:47;101566.19;;;18.89;100.00
58947;BME280;44724;52.332;4.978;2022-08-19T06:45:12;101566.03;;;18.94;100.00
58947;BME280;44724;52.332;4.978;2022-08-19T06:47:38;101566.38;;;19.01;100.00
58947;BME280;44724;52.332;4.978;2022-08-19T06:50:03;101568.66;;;18.99;100.00
58947;BME280;44724;52.332;4.978;2022-08-19T06:52:31;101558.59;;;18.98;100.00
58947;BME280;44724;52.332;4.978;2022-08-19T06:54:57;101565.03;;;19.07;100.00
58947;BME280;44724;52.332;4.978;2022-08-19T06:57:23;101562.06;;;19.21;100.00
58947;BME280;44724;52.332;4.978;2022-08-19T06:59:49;101554.47;;;19.22;100.00
58947;BME280;44724;52.332;4.978;2022-08-19T07:02:14;101542.59;;;19.25;100.00
58947;BME280;44724;52.332;4.978;2022-08-19T07:04:40;101546.69;;;19.36;100.00
58947;BME280;44724;52.332;4.978;2022-08-19T07:07:08;101552.44;;;19.48;100.00
58947;BME280;44724;52.332;4.978;2022-08-19T07:09:34;101545.53;;;19.54;100.00
58947;BME280;44724;52.332;4.978;2022-08-19T07:12:04;101543.84;;;19.62;100.00
58947;BME280;44724;52.332;4.978;2022-08-19T07:14:30;101535.06;;;19.81;100.00
58947;BME280;44724;52.332;4.978;2022-08-19T07:16:56;101528.97;;;19.79;100.00
58947;BME280;44724;52.332;4.978;2022-08-19T07:19:25;101527.44;;;19.90;100.00
58947;BME280;44724;52.332;4.978;2022-08-19T07:21:52;101525.72;;;19.98;100.00
58947;BME280;44724;52.332;4.978;2022-08-19T07:24:19;101523.75;;;19.99;100.00
58947;BME280;44724;52.332;4.978;2022-08-19T07:26:45;101519.22;;;20.15;100.00
58947;BME280;44724;52.332;4.978;2022-08-19T07:29:12;101524.75;;;20.32;100.00
58947;BME280;44724;52.332;4.978;2022-08-19T07:31:38;101509.66;;;20.37;100.00
58947;BME280;44724;52.332;4.978;2022-08-19T07:34:05;101501.97;;;20.46;100.00
58947;BME280;44724;52.332;4.978;2022-08-19T07:36:36;101503.56;;;20.56;100.00
58947;BME280;44724;52.332;4.978;2022-08-19T07:39:11;101498.16;;;20.51;100.00
58947;BME280;44724;52.332;4.978;2022-08-19T07:41:37;101503.41;;;20.61;100.00
58947;BME280;44724;52.332;4.978;2022-08-19T07:44:03;101501.63;;;20.78;100.00
58947;BME280;44724;52.332;4.978;2022-08-19T07:46:31;101496.41;;;20.88;100.00
58947;BME280;44724;52.332;4.978;2022-08-19T07:48:57;101501.88;;;21.06;100.00
58947;BME280;44724;52.332;4.978;2022-08-19T07:51:23;101503.78;;;21.14;100.00
58947;BME280;44724;52.332;4.978;2022-08-19T07:53:49;101508.66;;;21.38;100.00
58947;BME280;44724;52.332;4.978;2022-08-19T07:56:16;101489.91;;;21.42;100.00
58947;BME280;44724;52.332;4.978;2022-08-19T07:58:44;101491.78;;;21.38;100.00
58947;BME280;44724;52.332;4.978;2022-08-19T08:01:17;101489.91;;;21.30;100.00
58947;BME280;44724;52.332;4.978;2022-08-19T08:03:43;101503.03;;;21.38;100.00
58947;BME280;44724;52.332;4.978;2022-08-19T08:06:28;101504.41;;;21.53;100.00
58947;BME280;44724;52.332;4.978;2022-08-19T08:09:15;101508.88;;;21.67;100.00
58947;BME280;44724;52.332;4.978;2022-08-19T08:11:54;101498.66;;;21.74;100.00
58947;BME280;44724;52.332;4.978;2022-08-19T08:14:23;101502.81;;;21.77;100.00
58947;BME280;44724;52.332;4.978;2022-08-19T08:16:50;101503.97;;;21.88;100.00
58947;BME280;44724;52.332;4.978;2022-08-19T08:19:18;101507.00;;;21.83;100.00
58947;BME280;44724;52.332;4.978;2022-08-19T08:21:44;101512.75;;;21.74;100.00
58947;BME280;44724;52.332;4.978;2022-08-19T08:24:10;101512.19;;;21.81;100.00
58947;BME280;44724;52.332;4.978;2022-08-19T08:26:36;101515.25;;;21.88;100.00
58947;BME280;44724;52.332;4.978;2022-08-19T08:29:02;101523.13;;;22.07;100.00
58947;BME280;44724;52.332;4.978;2022-08-19T08:31:27;101514.56;;;22.16;100.00
58947;BME280;44724;52.332;4.978;2022-08-19T08:33:53;101513.41;;;22.29;100.00
58947;BME280;44724;52.332;4.978;2022-08-19T08:36:18;101510.66;;;22.20;100.00
58947;BME280;44724;52.332;4.978;2022-08-19T08:38:44;101512.56;;;22.41;100.00
58947;BME280;44724;52.332;4.978;2022-08-19T08:43:46;101503.53;;;22.88;100.00
58947;BME280;44724;52.332;4.978;2022-08-19T08:48:54;101488.63;;;23.16;100.00
58947;BME280;44724;52.332;4.978;2022-08-19T08:51:37;101480.78;;;23.25;100.00
58947;BME280;44724;52.332;4.978;2022-08-19T08:54:10;101485.22;;;23.54;100.00
58947;BME280;44724;52.332;4.978;2022-08-19T08:56:39;101480.59;;;23.94;100.00
58947;BME280;44724;52.332;4.978;2022-08-19T08:59:09;101471.25;;;24.25;100.00
58947;BME280;44724;52.332;4.978;2022-08-19T09:01:35;101470.00;;;24.42;100.00
58947;BME280;44724;52.332;4.978;2022-08-19T09:04:06;101461.88;;;24.41;100.00
58947;BME280;44724;52.332;4.978;2022-08-19T09:07:09;101465.78;;;24.52;100.00
58947;BME280;44724;52.332;4.978;2022-08-19T09:09:49;101459.97;;;24.80;100.00
58947;BME280;44724;52.332;4.978;2022-08-19T09:12:31;101466.28;;;24.74;100.00
58947;BME280;44724;52.332;4.978;2022-08-19T09:15:07;101459.53;;;24.78;100.00
58947;BME280;44724;52.332;4.978;2022-08-19T09:17:34;101463.59;;;24.81;100.00
58947;BME280;44724;52.332;4.978;2022-08-19T09:20:05;101463.75;;;24.88;100.00
58947;BME280;44724;52.332;4.978;2022-08-19T09:22:38;101460.63;;;24.74;100.00
58947;BME280;44724;52.332;4.978;2022-08-19T09:25:06;101463.59;;;24.61;100.00
58947;BME280;44724;52.332;4.978;2022-08-19T09:27:32;101470.16;;;24.49;100.00
58947;BME280;44724;52.332;4.978;2022-08-19T09:29:58;101473.44;;;24.52;100.00
58947;BME280;44724;52.332;4.978;2022-08-19T09:32:24;101484.22;;;24.46;100.00
58947;BME280;44724;52.332;4.978;2022-08-19T09:34:52;101483.25;;;24.38;100.00
58947;BME280;44724;52.332;4.978;2022-08-19T09:37:20;101483.25;;;24.38;100.00
58947;BME280;44724;52.332;4.978;2022-08-19T09:39:47;101469.91;;;24.55;100.00
58947;BME280;44724;52.332;4.978;2022-08-19T09:42:12;101467.31;;;25.04;100.00
58947;BME280;44724;52.332;4.978;2022-08-19T09:44:40;101463.81;;;25.31;100.00
58947;BME280;44724;52.332;4.978;2022-08-19T09:47:05;101454.06;;;25.28;100.00
58947;BME280;44724;52.332;4.978;2022-08-19T09:49:32;101461.66;;;25.47;100.00
58947;BME280;44724;52.332;4.978;2022-08-19T09:51:57;101458.56;;;25.33;100.00
58947;BME280;44724;52.332;4.978;2022-08-19T09:54:23;101455.31;;;25.11;100.00
58947;BME280;44724;52.332;4.978;2022-08-19T09:56:49;101459.81;;;24.93;100.00
58947;BME280;44724;52.332;4.978;2022-08-19T09:59:14;101468.97;;;24.86;100.00
58947;BME280;44724;52.332;4.978;2022-08-19T10:01:40;101464.03;;;24.63;100.00
58947;BME280;44724;52.332;4.978;2022-08-19T10:04:05;101470.44;;;24.99;100.00
58947;BME280;44724;52.332;4.978;2022-08-19T10:06:35;101462.47;;;25.25;100.00
58947;BME280;44724;52.332;4.978;2022-08-19T10:09:01;101458.66;;;25.17;100.00
58947;BME280;44724;52.332;4.978;2022-08-19T10:11:29;101468.00;;;24.78;100.00
58947;BME280;44724;52.332;4.978;2022-08-19T10:13:55;101472.63;;;24.51;100.00
58947;BME280;44724;52.332;4.978;2022-08-19T10:16:21;101468.63;;;24.52;100.00
58947;BME280;44724;52.332;4.978;2022-08-19T10:18:48;101462.88;;;24.48;100.00
58947;BME280;44724;52.332;4.978;2022-08-19T10:21:17;101459.81;;;24.54;100.00
58947;BME280;44724;52.332;4.978;2022-08-19T10:23:45;101465.34;;;24.50;100.00
58947;BME280;44724;52.332;4.978;2022-08-19T10:26:13;101453.31;;;24.53;100.00
58947;BME280;44724;52.332;4.978;2022-08-19T10:28:39;101468.09;;;24.46;100.00
58947;BME280;44724;52.332;4.978;2022-08-19T10:31:07;101462.66;;;24.38;100.00
58947;BME280;44724;52.332;4.978;2022-08-19T10:33:34;101466.97;;;24.16;100.00
58947;BME280;44724;52.332;4.978;2022-08-19T10:36:06;101473.06;;;24.18;100.00
58947;BME280;44724;52.332;4.978;2022-08-19T10:38:32;101477.81;;;24.29;100.00
58947;BME280;44724;52.332;4.978;2022-08-19T10:41:11;101479.41;;;24.46;100.00
58947;BME280;44724;52.332;4.978;2022-08-19T10:43:36;101474.94;;;24.45;100.00
58947;BME280;44724;52.332;4.978;2022-08-19T10:46:05;101483.31;;;24.58;100.00
58947;BME280;44724;52.332;4.978;2022-08-19T10:48:31;101478.84;;;24.76;100.00
58947;BME280;44724;52.332;4.978;2022-08-19T10:50:57;101476.88;;;24.96;100.00
58947;BME280;44724;52.332;4.978;2022-08-19T10:53:42;101481.22;;;25.13;100.00
58947;BME280;44724;52.332;4.978;2022-08-19T10:56:07;101474.91;;;25.00;100.00
58947;BME280;44724;52.332;4.978;2022-08-19T10:58:51;101475.78;;;25.24;100.00
58947;BME280;44724;52.332;4.978;2022-08-19T11:01:16;101472.59;;;24.86;100.00
58947;BME280;44724;52.332;4.978;2022-08-19T11:03:41;101473.97;;;24.93;100.00
58947;BME280;44724;52.332;4.978;2022-08-19T11:06:08;101469.03;;;24.90;100.00
58947;BME280;44724;52.332;4.978;2022-08-19T11:08:35;101474.25;;;24.88;100.00
58947;BME280;44724;52.332;4.978;2022-08-19T11:11:04;101473.75;;;24.82;100.00
58947;BME280;44724;52.332;4.978;2022-08-19T11:13:31;101479.84;;;24.84;100.00
58947;BME280;44724;52.332;4.978;2022-08-19T11:16:08;101482.31;;;24.85;100.00
58947;BME280;44724;52.332;4.978;2022-08-19T11:18:35;101474.41;;;24.95;100.00
58947;BME280;44724;52.332;4.978;2022-08-19T11:21:18;101470.38;;;24.96;100.00
58947;BME280;44724;52.332;4.978;2022-08-19T11:23:48;101479.47;;;25.25;100.00
58947;BME280;44724;52.332;4.978;2022-08-19T11:26:16;101469.22;;;25.39;100.00
58947;BME280;44724;52.332;4.978;2022-08-19T11:28:42;101469.78;;;25.49;100.00
58947;BME280;44724;52.332;4.978;2022-08-19T11:31:17;101466.41;;;25.63;100.00
58947;BME280;44724;52.332;4.978;2022-08-19T11:33:43;101468.47;;;25.66;100.00
58947;BME280;44724;52.332;4.978;2022-08-19T11:36:09;101462.50;;;25.71;100.00
58947;BME280;44724;52.332;4.978;2022-08-19T11:38:38;101462.56;;;25.51;100.00
58947;BME280;44724;52.332;4.978;2022-08-19T11:41:06;101467.19;;;25.40;100.00
58947;BME280;44724;52.332;4.978;2022-08-19T11:43:35;101467.22;;;25.63;100.00
58947;BME280;44724;52.332;4.978;2022-08-19T11:46:05;101469.41;;;25.73;100.00
58947;BME280;44724;52.332;4.978;2022-08-19T11:48:32;101463.00;;;25.53;100.00
58947;BME280;44724;52.332;4.978;2022-08-19T11:50:57;101463.69;;;25.47;100.00
58947;BME280;44724;52.332;4.978;2022-08-19T11:53:23;101456.81;;;25.25;100.00
58947;BME280;44724;52.332;4.978;2022-08-19T11:55:49;101469.47;;;25.11;100.00
58947;BME280;44724;52.332;4.978;2022-08-19T11:58:16;101464.69;;;25.15;100.00
58947;BME280;44724;52.332;4.978;2022-08-19T12:00:45;101466.47;;;25.43;100.00
58947;BME280;44724;52.332;4.978;2022-08-19T12:03:14;101467.53;;;25.58;100.00
58947;BME280;44724;52.332;4.978;2022-08-19T12:05:40;101470.09;;;25.67;100.00
58947;BME280;44724;52.332;4.978;2022-08-19T12:08:06;101471.19;;;25.82;100.00
58947;BME280;44724;52.332;4.978;2022-08-19T12:10:32;101470.91;;;25.90;100.00
58947;BME280;44724;52.332;4.978;2022-08-19T12:12:58;101476.78;;;26.01;100.00
58947;BME280;44724;52.332;4.978;2022-08-19T12:15:26;101478.72;;;25.74;100.00
58947;BME280;44724;52.332;4.978;2022-08-19T12:17:52;101463.19;;;25.64;100.00
58947;BME280;44724;52.332;4.978;2022-08-19T12:20:20;101459.44;;;25.60;100.00
58947;BME280;44724;52.332;4.978;2022-08-19T12:22:45;101460.41;;;25.68;100.00
58947;BME280;44724;52.332;4.978;2022-08-19T12:25:11;101467.59;;;25.61;100.00
58947;BME280;44724;52.332;4.978;2022-08-19T12:27:38;101459.53;;;25.64;100.00
58947;BME280;44724;52.332;4.978;2022-08-19T12:30:06;101469.66;;;25.41;100.00
58947;BME280;44724;52.332;4.978;2022-08-19T12:32:33;101462.56;;;25.28;100.00
58947;BME280;44724;52.332;4.978;2022-08-19T12:34:59;101466.94;;;25.26;100.00
58947;BME280;44724;52.332;4.978;2022-08-19T12:37:24;101473.53;;;25.14;100.00
58947;BME280;44724;52.332;4.978;2022-08-19T12:39:49;101469.91;;;25.13;100.00
58947;BME280;44724;52.332;4.978;2022-08-19T12:42:16;101453.41;;;25.19;100.00
58947;BME280;44724;52.332;4.978;2022-08-19T12:44:43;101461.47;;;25.36;100.00
58947;BME280;44724;52.332;4.978;2022-08-19T12:47:11;101460.41;;;25.45;100.00
58947;BME280;44724;52.332;4.978;2022-08-19T12:49:38;101455.69;;;25.75;100.00